Flight Track Log - Related Links

Times and Time Zones

All times are in EDT time to prevent confusion due to time zone crossing. See the SWA1739 flight status page for this flight to view local times or setup timezone preferences in your user account.

Time Position Orientation Groundspeed Altitude Reporting Facility
EDT Latitude Longitude Course Direction KTS MPH feet Rate Location/Type
Mon 10:14:54 AM 39.1833 -76.7167 127° Southeast 169 194 1,800  Level Potomac TRACON
Mon 10:17:22 AM 39.1053 -76.5814 127° Southeast 201 231 7,500 2,654 Climbing Washington Center
Mon 10:18:22 AM 39.1103 -76.4797 86° East 249 287 11,000 3,153 Climbing Washington Center
Mon 10:19:20 AM 39.1297 -76.3542 79° East 298 343 13,700 3,025 Climbing Washington Center
Mon 10:20:21 AM 39.1492 -76.2233 79° East 334 384 17,000 2,926 Climbing Washington Center
Mon 10:21:21 AM 39.1644 -76.0869 82° East 367 422 19,600 2,529 Climbing Washington Center
Mon 10:22:22 AM 39.1797 -75.9425 82° East 391 450 22,100 1,686 Climbing Washington Center
Mon 10:23:22 AM 39.2508 -75.8061 56° Northeast 396 456 23,000 661 Climbing Washington Center
Mon 10:24:20 AM 39.3342 -75.7017 44° Northeast 403 464 23,400 1,311 Climbing Washington Center
Mon 10:25:21 AM 39.4094 -75.6022 46° Northeast 417 480 25,600 2,132 Climbing Washington Center
Mon 10:26:21 AM 39.5031 -75.4814 45° Northeast 422 486 27,700 1,989 Climbing Washington Center
Mon 10:28:16 AM 39.6675 -75.2558 47° Northeast 422 486 31,400 1,943 Climbing New York Center
Mon 10:29:17 AM 39.7444 -75.1500 47° Northeast 441 507 33,400 1,785 Climbing New York Center
Mon 10:30:17 AM 39.8392 -75.0153 47° Northeast 450 518 35,000 814 Climbing New York Center
Mon 10:31:15 AM 39.9225 -74.8986 47° Northeast 450 518 35,000  Level New York Center
Mon 10:32:15 AM 40.0011 -74.7950 45° Northeast 450 518 35,000  Level New York Center
Mon 10:33:15 AM 40.0842 -74.6775 47° Northeast 445 512 35,000  Level New York Center
Mon 10:34:17 AM 40.1672 -74.5600 47° Northeast 440 506 35,000  Level New York Center
Mon 10:36:17 AM 40.3447 -74.3133 47° Northeast 440 506 35,000  Level Boston Center
Mon 10:37:17 AM 40.4256 -74.1983 47° Northeast 433 498 35,000  Level Boston Center
Mon 10:38:17 AM 40.4917 -74.1019 48° Northeast 433 498 35,000  Level Boston Center
Mon 10:39:17 AM 40.5789 -73.9758 48° Northeast 433 498 35,000  Level Boston Center
Mon 10:40:17 AM 40.6617 -73.8600 47° Northeast 433 498 35,000  Level Boston Center
Mon 10:41:17 AM 40.7422 -73.7411 48° Northeast 433 498 35,000  Level Boston Center
Mon 10:42:17 AM 40.8250 -73.6222 47° Northeast 438 504 35,000  Level Boston Center
Mon 10:43:17 AM 40.9053 -73.5028 48° Northeast 438 504 35,000  Level Boston Center
Mon 10:44:17 AM 40.9897 -73.3833 47° Northeast 438 504 35,000  Level Boston Center
Mon 10:45:17 AM 41.0761 -73.2494 49° Northeast 438 504 35,000  Level Boston Center
Mon 10:46:17 AM 41.1583 -73.1294 48° Northeast 438 504 35,000  Level Boston Center
Mon 10:47:17 AM 41.2236 -72.9892 58° Northeast 438 504 35,000  Level Boston Center
Mon 10:48:17 AM 41.2867 -72.8600 57° Northeast 445 512 35,000  Level Boston Center
Mon 10:49:17 AM 41.3517 -72.7222 58° Northeast 445 512 35,000  Level Boston Center
Mon 10:50:17 AM 41.4144 -72.5842 59° Northeast 445 512 35,000  Level Boston Center
Mon 10:51:17 AM 41.4772 -72.4456 59° Northeast 440 506 35,000  Level Boston Center
Mon 10:52:17 AM 41.5439 -72.2986 59° Northeast 435 501 35,000  Level Boston Center
Mon 10:53:17 AM 41.6081 -72.1569 59° Northeast 435 501 35,000  Level Boston Center
Mon 10:54:17 AM 41.6722 -72.0203 58° Northeast 435 501 35,000  Level Boston Center
Mon 10:55:17 AM 41.7364 -71.8781 59° Northeast 430 495 35,000  Level Boston Center
Mon 10:56:17 AM 41.8083 -71.7467 54° Northeast 430 495 35,000  Level Boston Center
Mon 10:57:17 AM 41.8889 -71.6231 49° Northeast 430 495 35,000  Level Boston Center
Mon 10:58:17 AM 41.9653 -71.5186 45° Northeast 435 501 35,000 -300 Level Boston Center
Mon 10:59:17 AM 42.0433 -71.3972 49° Northeast 430 495 34,400 -1,400 Descending Boston Center
Mon 11:00:17 AM 42.1214 -71.2758 49° Northeast 430 495 32,200 -2,100 Descending Boston Center
Mon 11:01:17 AM 42.1972 -71.1567 49° Northeast 424 488 30,200 -2,000 Descending Boston Center
Mon 11:02:17 AM 42.2708 -71.0400 50° Northeast 408 470 28,200 -1,950 Descending Boston Center
Mon 11:03:17 AM 42.3403 -70.9261 50° Northeast 397 457 26,300 -1,850 Descending Boston Center
Mon 11:04:17 AM 42.4158 -70.8061 50° Northeast 392 451 24,500 -1,150 Descending Boston Center
Mon 11:05:17 AM 42.5022 -70.7336 32° Northeast 360 414 24,000 -900 Descending Boston Center
Mon 11:06:17 AM 42.5953 -70.6858 21° North 354 407 22,700 -1,550 Descending Boston Center
Mon 11:07:17 AM 42.6883 -70.6353 22° Northeast 354 407 20,900 -1,750 Descending Boston Center
Mon 11:08:17 AM 42.7750 -70.5817 24° Northeast 348 400 19,200 -1,600 Descending Boston Center
Mon 11:09:17 AM 42.8492 -70.5342 25° Northeast 330 380 17,700 -1,700 Descending Boston Center
Mon 11:10:17 AM 42.9400 -70.4775 25° Northeast 330 380 15,800 -1,750 Descending Boston Center
Mon 11:11:17 AM 43.0119 -70.4297 26° Northeast 325 374 14,200 -1,650 Descending Boston Center
Mon 11:12:17 AM 43.0942 -70.3617 31° Northeast 310 357 12,500 -1,650 Descending Boston Center
Mon 11:13:17 AM 43.1703 -70.2992 31° Northeast 310 357 10,900 -1,400 Descending Boston Center
Mon 11:14:17 AM 43.2317 -70.2431 34° Northeast 304 350 9,700 -1,650 Descending Boston Center
Mon 11:15:17 AM 43.3033 -70.1803 33° Northeast 290 334 7,600 -1,900 Descending Boston Center
Mon 11:16:17 AM 43.3672 -70.1439 22° Northeast 272 313 5,900 -1,545 Descending Boston Center
Mon 11:17:29 AM 43.4478 -70.1064 19° North 261 300 4,200 -1,636 Descending Boston Center
Mon 11:18:29 AM 43.5181 -70.0722 19° North 244 281 2,300 -1,100 Descending Boston Center
Mon 11:19:29 AM 43.5742 -70.0642 North 226 260 2,000 -250 Descending Boston Center
Mon 11:20:29 AM 43.6106 -70.1117 317° Northwest 170 196 1,800 -100 Descending Boston Center
Mon 11:21:29 AM 43.6322 -70.1567 304° West 159 183 1,800 -250 Level Boston Center
Mon 11:22:29 AM 43.6397 -70.2139 280° West 137 158 1,300 -550 Descending Boston Center
Mon 11:23:29 AM 43.6425 -70.2567 275° West 137 158 700 -550 Descending Boston Center
Mon 11:24:29 AM 43.6456 -70.3111 274° West 137 158 200 -500 Descending Boston Center
Mon 11:26:00 AM 43.6456 -70.3086 270° West  Level Estimated
Mon 11:33:00 AM 43.6456 -70.3086 270° West  Level Estimated

Login

Don't have an account? Register now (free) for customized features, flight alerts, and more!